sensor_id;sensor_type;location;lat;lon;timestamp;temperature;humidity
22974;DHT22;11653;50.848;4.584;2024-02-14T00:02:21;10.60;99.90
22974;DHT22;11653;50.848;4.584;2024-02-14T00:04:47;10.70;99.90
22974;DHT22;11653;50.848;4.584;2024-02-14T00:07:13;10.80;99.90
22974;DHT22;11653;50.848;4.584;2024-02-14T00:09:40;10.80;99.90
22974;DHT22;11653;50.848;4.584;2024-02-14T00:12:06;10.80;99.90
22974;DHT22;11653;50.848;4.584;2024-02-14T00:14:31;10.80;99.90
22974;DHT22;11653;50.848;4.584;2024-02-14T00:16:57;10.90;99.90
22974;DHT22;11653;50.848;4.584;2024-02-14T00:19:24;10.90;99.90
22974;DHT22;11653;50.848;4.584;2024-02-14T00:21:50;10.90;99.90
22974;DHT22;11653;50.848;4.584;2024-02-14T00:24:16;10.90;99.90
22974;DHT22;11653;50.848;4.584;2024-02-14T00:26:44;10.80;99.90
22974;DHT22;11653;50.848;4.584;2024-02-14T00:29:11;10.80;99.90
22974;DHT22;11653;50.848;4.584;2024-02-14T00:31:37;10.80;99.90
22974;DHT22;11653;50.848;4.584;2024-02-14T00:34:03;10.80;99.90
22974;DHT22;11653;50.848;4.584;2024-02-14T00:36:28;10.80;99.90
22974;DHT22;11653;50.848;4.584;2024-02-14T00:38:54;10.90;99.90
22974;DHT22;11653;50.848;4.584;2024-02-14T00:41:20;10.90;99.90
22974;DHT22;11653;50.848;4.584;2024-02-14T00:43:46;10.90;99.90
22974;DHT22;11653;50.848;4.584;2024-02-14T00:46:16;11.00;99.90
22974;DHT22;11653;50.848;4.584;2024-02-14T00:48:42;10.90;99.90
22974;DHT22;11653;50.848;4.584;2024-02-14T00:51:10;10.90;99.90
22974;DHT22;11653;50.848;4.584;2024-02-14T00:53:35;10.90;99.90
22974;DHT22;11653;50.848;4.584;2024-02-14T00:56:01;11.00;99.90
22974;DHT22;11653;50.848;4.584;2024-02-14T00:58:26;11.00;99.90
22974;DHT22;11653;50.848;4.584;2024-02-14T01:00:52;11.10;99.90
22974;DHT22;11653;50.848;4.584;2024-02-14T01:03:18;11.00;99.90
22974;DHT22;11653;50.848;4.584;2024-02-14T01:05:43;11.00;99.90
22974;DHT22;11653;50.848;4.584;2024-02-14T01:08:09;11.10;99.90
22974;DHT22;11653;50.848;4.584;2024-02-14T01:10:35;11.00;99.90
22974;DHT22;11653;50.848;4.584;2024-02-14T01:13:00;11.00;99.90
22974;DHT22;11653;50.848;4.584;2024-02-14T01:15:27;10.90;99.90
22974;DHT22;11653;50.848;4.584;2024-02-14T01:17:53;10.90;99.90
22974;DHT22;11653;50.848;4.584;2024-02-14T01:20:19;11.00;99.90
22974;DHT22;11653;50.848;4.584;2024-02-14T01:22:45;11.00;99.90
22974;DHT22;11653;50.848;4.584;2024-02-14T01:25:12;11.00;99.90
22974;DHT22;11653;50.848;4.584;2024-02-14T01:27:38;11.00;99.90
22974;DHT22;11653;50.848;4.584;2024-02-14T01:30:04;11.00;99.90
22974;DHT22;11653;50.848;4.584;2024-02-14T01:32:31;11.00;99.90
22974;DHT22;11653;50.848;4.584;2024-02-14T01:34:57;11.00;99.90
22974;DHT22;11653;50.848;4.584;2024-02-14T01:37:22;11.00;99.90
22974;DHT22;11653;50.848;4.584;2024-02-14T01:39:48;10.90;99.90
22974;DHT22;11653;50.848;4.584;2024-02-14T01:42:14;10.80;99.90
22974;DHT22;11653;50.848;4.584;2024-02-14T01:44:40;10.90;99.90
22974;DHT22;11653;50.848;4.584;2024-02-14T01:47:05;10.90;99.90
22974;DHT22;11653;50.848;4.584;2024-02-14T01:49:33;10.90;99.90
22974;DHT22;11653;50.848;4.584;2024-02-14T01:52:02;11.00;99.90
22974;DHT22;11653;50.848;4.584;2024-02-14T01:54:30;10.90;99.90
22974;DHT22;11653;50.848;4.584;2024-02-14T01:56:56;10.90;99.90
22974;DHT22;11653;50.848;4.584;2024-02-14T01:59:24;11.00;99.90
22974;DHT22;11653;50.848;4.584;2024-02-14T02:01:50;11.00;99.90
22974;DHT22;11653;50.848;4.584;2024-02-14T02:04:17;11.00;99.90
22974;DHT22;11653;50.848;4.584;2024-02-14T02:06:44;11.00;99.90
22974;DHT22;11653;50.848;4.584;2024-02-14T02:09:09;10.90;99.90
22974;DHT22;11653;50.848;4.584;2024-02-14T02:11:52;10.90;99.90
22974;DHT22;11653;50.848;4.584;2024-02-14T02:14:21;10.90;99.90
22974;DHT22;11653;50.848;4.584;2024-02-14T02:16:47;11.00;99.90
22974;DHT22;11653;50.848;4.584;2024-02-14T02:19:13;11.00;99.90
22974;DHT22;11653;50.848;4.584;2024-02-14T02:21:41;11.00;99.90
22974;DHT22;11653;50.848;4.584;2024-02-14T02:24:08;11.10;99.90
22974;DHT22;11653;50.848;4.584;2024-02-14T02:26:34;11.00;99.90
22974;DHT22;11653;50.848;4.584;2024-02-14T02:28:59;11.00;99.90
22974;DHT22;11653;50.848;4.584;2024-02-14T02:31:25;11.00;99.90
22974;DHT22;11653;50.848;4.584;2024-02-14T02:33:52;11.00;99.90
22974;DHT22;11653;50.848;4.584;2024-02-14T02:36:18;10.90;99.90
22974;DHT22;11653;50.848;4.584;2024-02-14T02:38:43;11.00;99.90
22974;DHT22;11653;50.848;4.584;2024-02-14T02:41:09;11.00;99.90
22974;DHT22;11653;50.848;4.584;2024-02-14T02:43:35;10.90;99.90
22974;DHT22;11653;50.848;4.584;2024-02-14T02:46:01;10.90;99.90
22974;DHT22;11653;50.848;4.584;2024-02-14T02:48:27;11.00;99.90
22974;DHT22;11653;50.848;4.584;2024-02-14T02:50:53;11.00;99.90
22974;DHT22;11653;50.848;4.584;2024-02-14T02:53:20;11.00;99.90
22974;DHT22;11653;50.848;4.584;2024-02-14T02:55:45;11.10;99.90
22974;DHT22;11653;50.848;4.584;2024-02-14T02:58:11;11.10;99.90
22974;DHT22;11653;50.848;4.584;2024-02-14T03:00:37;11.10;99.90
22974;DHT22;11653;50.848;4.584;2024-02-14T03:03:03;11.10;99.90
22974;DHT22;11653;50.848;4.584;2024-02-14T03:05:30;11.10;99.90
22974;DHT22;11653;50.848;4.584;2024-02-14T03:07:57;11.20;99.90
22974;DHT22;11653;50.848;4.584;2024-02-14T03:10:24;11.20;99.90
22974;DHT22;11653;50.848;4.584;2024-02-14T03:12:50;11.30;99.90
22974;DHT22;11653;50.848;4.584;2024-02-14T03:15:17;11.30;99.90
22974;DHT22;11653;50.848;4.584;2024-02-14T03:17:42;11.30;99.90
22974;DHT22;11653;50.848;4.584;2024-02-14T03:20:08;11.30;99.90
22974;DHT22;11653;50.848;4.584;2024-02-14T03:22:44;11.30;99.90
22974;DHT22;11653;50.848;4.584;2024-02-14T03:25:17;11.30;99.90
22974;DHT22;11653;50.848;4.584;2024-02-14T03:27:43;11.40;99.90
22974;DHT22;11653;50.848;4.584;2024-02-14T03:30:14;11.40;99.90
22974;DHT22;11653;50.848;4.584;2024-02-14T03:32:42;11.50;99.90
22974;DHT22;11653;50.848;4.584;2024-02-14T03:35:07;11.50;99.90
22974;DHT22;11653;50.848;4.584;2024-02-14T03:37:35;11.50;99.90
22974;DHT22;11653;50.848;4.584;2024-02-14T03:40:04;11.40;99.90
22974;DHT22;11653;50.848;4.584;2024-02-14T03:42:30;11.50;99.90
22974;DHT22;11653;50.848;4.584;2024-02-14T03:44:56;11.50;99.90
22974;DHT22;11653;50.848;4.584;2024-02-14T03:47:28;11.40;99.90
22974;DHT22;11653;50.848;4.584;2024-02-14T03:49:58;11.40;99.90
22974;DHT22;11653;50.848;4.584;2024-02-14T03:52:24;11.40;99.90
22974;DHT22;11653;50.848;4.584;2024-02-14T03:54:50;11.40;99.90
22974;DHT22;11653;50.848;4.584;2024-02-14T03:57:19;11.40;99.90
22974;DHT22;11653;50.848;4.584;2024-02-14T03:59:46;11.50;99.90
22974;DHT22;11653;50.848;4.584;2024-02-14T04:02:11;11.50;99.90
22974;DHT22;11653;50.848;4.584;2024-02-14T04:04:41;11.40;99.90
22974;DHT22;11653;50.848;4.584;2024-02-14T04:07:07;11.40;99.90
22974;DHT22;11653;50.848;4.584;2024-02-14T04:09:36;11.30;99.90
22974;DHT22;11653;50.848;4.584;2024-02-14T04:12:02;11.30;99.90
22974;DHT22;11653;50.848;4.584;2024-02-14T04:14:28;11.40;99.90
22974;DHT22;11653;50.848;4.584;2024-02-14T04:16:54;11.40;99.90
22974;DHT22;11653;50.848;4.584;2024-02-14T04:19:20;11.40;99.90
22974;DHT22;11653;50.848;4.584;2024-02-14T04:21:46;11.30;99.90
22974;DHT22;11653;50.848;4.584;2024-02-14T04:24:12;11.30;99.90
22974;DHT22;11653;50.848;4.584;2024-02-14T04:26:38;11.30;99.90
22974;DHT22;11653;50.848;4.584;2024-02-14T04:29:03;11.30;99.90
22974;DHT22;11653;50.848;4.584;2024-02-14T04:31:29;11.30;99.90
22974;DHT22;11653;50.848;4.584;2024-02-14T04:33:56;11.30;99.90
22974;DHT22;11653;50.848;4.584;2024-02-14T04:36:22;11.30;99.90
22974;DHT22;11653;50.848;4.584;2024-02-14T04:38:51;11.30;99.90
22974;DHT22;11653;50.848;4.584;2024-02-14T04:41:21;11.40;99.90
22974;DHT22;11653;50.848;4.584;2024-02-14T04:43:46;11.40;99.90
22974;DHT22;11653;50.848;4.584;2024-02-14T04:46:13;11.40;99.90
22974;DHT22;11653;50.848;4.584;2024-02-14T04:48:38;11.40;99.90
22974;DHT22;11653;50.848;4.584;2024-02-14T04:51:05;11.50;99.90
22974;DHT22;11653;50.848;4.584;2024-02-14T04:53:31;11.60;99.90
22974;DHT22;11653;50.848;4.584;2024-02-14T04:55:57;11.50;99.90
22974;DHT22;11653;50.848;4.584;2024-02-14T04:58:23;11.60;99.90
22974;DHT22;11653;50.848;4.584;2024-02-14T05:00:48;11.70;99.90
22974;DHT22;11653;50.848;4.584;2024-02-14T05:03:14;11.70;99.90
22974;DHT22;11653;50.848;4.584;2024-02-14T05:05:41;11.70;99.90
22974;DHT22;11653;50.848;4.584;2024-02-14T05:08:06;11.80;99.90
22974;DHT22;11653;50.848;4.584;2024-02-14T05:10:32;11.80;99.90
22974;DHT22;11653;50.848;4.584;2024-02-14T05:12:58;11.70;99.90
22974;DHT22;11653;50.848;4.584;2024-02-14T05:15:24;11.70;99.90
22974;DHT22;11653;50.848;4.584;2024-02-14T05:17:51;11.70;99.90
22974;DHT22;11653;50.848;4.584;2024-02-14T05:20:17;11.70;99.90
22974;DHT22;11653;50.848;4.584;2024-02-14T05:22:43;11.70;99.90
22974;DHT22;11653;50.848;4.584;2024-02-14T05:25:08;11.70;99.90
22974;DHT22;11653;50.848;4.584;2024-02-14T05:27:35;11.80;99.90
22974;DHT22;11653;50.848;4.584;2024-02-14T05:30:01;11.70;99.90
22974;DHT22;11653;50.848;4.584;2024-02-14T05:32:34;11.70;99.90
22974;DHT22;11653;50.848;4.584;2024-02-14T05:35:00;11.70;99.90
22974;DHT22;11653;50.848;4.584;2024-02-14T05:37:26;11.70;99.90
22974;DHT22;11653;50.848;4.584;2024-02-14T05:39:54;11.70;99.90
22974;DHT22;11653;50.848;4.584;2024-02-14T05:42:21;11.80;99.90
22974;DHT22;11653;50.848;4.584;2024-02-14T05:44:47;11.80;99.90
22974;DHT22;11653;50.848;4.584;2024-02-14T05:47:13;11.70;99.90
22974;DHT22;11653;50.848;4.584;2024-02-14T05:49:40;11.70;99.90
22974;DHT22;11653;50.848;4.584;2024-02-14T05:52:06;11.70;99.90
22974;DHT22;11653;50.848;4.584;2024-02-14T05:54:33;11.70;99.90
22974;DHT22;11653;50.848;4.584;2024-02-14T05:56:58;11.80;99.90
22974;DHT22;11653;50.848;4.584;2024-02-14T05:59:24;11.70;99.90
22974;DHT22;11653;50.848;4.584;2024-02-14T06:01:50;11.80;99.90
22974;DHT22;11653;50.848;4.584;2024-02-14T06:04:15;11.80;99.90
22974;DHT22;11653;50.848;4.584;2024-02-14T06:06:41;11.90;99.90
22974;DHT22;11653;50.848;4.584;2024-02-14T06:09:07;11.90;99.90
22974;DHT22;11653;50.848;4.584;2024-02-14T06:11:37;11.90;99.90
22974;DHT22;11653;50.848;4.584;2024-02-14T06:14:05;11.90;99.90
22974;DHT22;11653;50.848;4.584;2024-02-14T06:16:31;11.90;99.90
22974;DHT22;11653;50.848;4.584;2024-02-14T06:18:57;12.00;99.90
22974;DHT22;11653;50.848;4.584;2024-02-14T06:21:23;12.00;99.90
22974;DHT22;11653;50.848;4.584;2024-02-14T06:23:49;12.10;99.90
22974;DHT22;11653;50.848;4.584;2024-02-14T06:26:14;12.10;99.90
22974;DHT22;11653;50.848;4.584;2024-02-14T06:28:40;12.00;99.90
22974;DHT22;11653;50.848;4.584;2024-02-14T06:31:05;12.00;99.90
22974;DHT22;11653;50.848;4.584;2024-02-14T06:33:31;12.00;99.90
22974;DHT22;11653;50.848;4.584;2024-02-14T06:35:57;12.10;99.90
22974;DHT22;11653;50.848;4.584;2024-02-14T06:38:22;12.10;99.90
22974;DHT22;11653;50.848;4.584;2024-02-14T06:40:48;12.10;99.90
22974;DHT22;11653;50.848;4.584;2024-02-14T06:43:14;12.20;99.90
22974;DHT22;11653;50.848;4.584;2024-02-14T06:45:40;12.20;99.90
22974;DHT22;11653;50.848;4.584;2024-02-14T06:48:07;12.20;99.90
22974;DHT22;11653;50.848;4.584;2024-02-14T06:50:34;12.20;99.90
22974;DHT22;11653;50.848;4.584;2024-02-14T06:53:00;12.10;99.90
22974;DHT22;11653;50.848;4.584;2024-02-14T06:55:26;12.10;99.90
22974;DHT22;11653;50.848;4.584;2024-02-14T06:57:52;12.10;99.90
22974;DHT22;11653;50.848;4.584;2024-02-14T07:00:19;12.00;99.90
22974;DHT22;11653;50.848;4.584;2024-02-14T07:02:45;12.10;99.90
22974;DHT22;11653;50.848;4.584;2024-02-14T07:05:13;12.10;99.90
22974;DHT22;11653;50.848;4.584;2024-02-14T07:07:40;12.10;99.90
22974;DHT22;11653;50.848;4.584;2024-02-14T07:10:07;12.20;99.90
22974;DHT22;11653;50.848;4.584;2024-02-14T07:12:33;12.20;99.90
22974;DHT22;11653;50.848;4.584;2024-02-14T07:14:58;12.20;99.90
22974;DHT22;11653;50.848;4.584;2024-02-14T07:17:24;12.20;99.90
22974;DHT22;11653;50.848;4.584;2024-02-14T07:19:50;12.20;99.90
22974;DHT22;11653;50.848;4.584;2024-02-14T07:22:16;12.30;99.90
22974;DHT22;11653;50.848;4.584;2024-02-14T07:24:44;12.30;99.90
22974;DHT22;11653;50.848;4.584;2024-02-14T07:27:13;12.30;99.90
22974;DHT22;11653;50.848;4.584;2024-02-14T07:29:39;12.30;99.90
22974;DHT22;11653;50.848;4.584;2024-02-14T07:32:05;12.30;99.90
22974;DHT22;11653;50.848;4.584;2024-02-14T07:34:34;12.30;99.90
22974;DHT22;11653;50.848;4.584;2024-02-14T07:36:59;12.50;99.90
22974;DHT22;11653;50.848;4.584;2024-02-14T07:39:25;12.50;99.90
22974;DHT22;11653;50.848;4.584;2024-02-14T07:41:51;12.50;99.90
22974;DHT22;11653;50.848;4.584;2024-02-14T07:44:17;12.50;99.90
22974;DHT22;11653;50.848;4.584;2024-02-14T07:46:43;12.50;99.90
22974;DHT22;11653;50.848;4.584;2024-02-14T07:49:09;12.60;99.90
22974;DHT22;11653;50.848;4.584;2024-02-14T07:51:35;12.60;99.90
22974;DHT22;11653;50.848;4.584;2024-02-14T07:54:03;12.60;99.90
22974;DHT22;11653;50.848;4.584;2024-02-14T07:56:29;12.50;99.90
22974;DHT22;11653;50.848;4.584;2024-02-14T07:58:55;12.50;99.90
22974;DHT22;11653;50.848;4.584;2024-02-14T08:01:21;12.50;99.90
22974;DHT22;11653;50.848;4.584;2024-02-14T08:03:46;12.60;99.90
22974;DHT22;11653;50.848;4.584;2024-02-14T08:06:13;12.70;99.90
22974;DHT22;11653;50.848;4.584;2024-02-14T08:08:39;12.70;99.90
22974;DHT22;11653;50.848;4.584;2024-02-14T08:11:04;12.60;99.90
22974;DHT22;11653;50.848;4.584;2024-02-14T08:13:31;12.70;99.90
22974;DHT22;11653;50.848;4.584;2024-02-14T08:15:57;12.80;99.90
22974;DHT22;11653;50.848;4.584;2024-02-14T08:18:24;12.80;99.90
22974;DHT22;11653;50.848;4.584;2024-02-14T08:20:50;12.80;99.90
22974;DHT22;11653;50.848;4.584;2024-02-14T08:23:15;12.90;99.90
22974;DHT22;11653;50.848;4.584;2024-02-14T08:25:42;12.80;99.90
22974;DHT22;11653;50.848;4.584;2024-02-14T08:28:09;12.80;99.90
22974;DHT22;11653;50.848;4.584;2024-02-14T08:30:34;12.80;99.90
22974;DHT22;11653;50.848;4.584;2024-02-14T08:33:00;12.90;99.90
22974;DHT22;11653;50.848;4.584;2024-02-14T08:35:26;12.80;99.90
22974;DHT22;11653;50.848;4.584;2024-02-14T08:37:52;12.80;99.90
22974;DHT22;11653;50.848;4.584;2024-02-14T08:40:17;12.80;99.90
22974;DHT22;11653;50.848;4.584;2024-02-14T08:42:43;12.80;99.90
22974;DHT22;11653;50.848;4.584;2024-02-14T08:45:09;12.80;99.90
22974;DHT22;11653;50.848;4.584;2024-02-14T08:47:36;12.70;99.90
22974;DHT22;11653;50.848;4.584;2024-02-14T08:50:03;12.80;99.90
22974;DHT22;11653;50.848;4.584;2024-02-14T08:52:32;12.80;99.90
22974;DHT22;11653;50.848;4.584;2024-02-14T08:54:58;12.70;99.90
22974;DHT22;11653;50.848;4.584;2024-02-14T08:57:23;12.70;99.90
22974;DHT22;11653;50.848;4.584;2024-02-14T08:59:49;12.80;99.90
22974;DHT22;11653;50.848;4.584;2024-02-14T09:02:16;12.80;99.90
22974;DHT22;11653;50.848;4.584;2024-02-14T09:04:42;12.80;99.90
22974;DHT22;11653;50.848;4.584;2024-02-14T09:07:08;12.80;99.90
22974;DHT22;11653;50.848;4.584;2024-02-14T09:09:34;12.80;99.90
22974;DHT22;11653;50.848;4.584;2024-02-14T09:11:59;12.90;99.90
22974;DHT22;11653;50.848;4.584;2024-02-14T09:14:31;12.80;99.90
22974;DHT22;11653;50.848;4.584;2024-02-14T09:16:57;12.80;99.90
22974;DHT22;11653;50.848;4.584;2024-02-14T09:19:23;12.80;99.90
22974;DHT22;11653;50.848;4.584;2024-02-14T09:21:50;12.80;99.90
22974;DHT22;11653;50.848;4.584;2024-02-14T09:24:16;12.80;99.90
22974;DHT22;11653;50.848;4.584;2024-02-14T09:26:42;12.90;99.90
22974;DHT22;11653;50.848;4.584;2024-02-14T09:29:08;13.00;99.90
22974;DHT22;11653;50.848;4.584;2024-02-14T09:31:36;13.00;99.90
22974;DHT22;11653;50.848;4.584;2024-02-14T09:34:02;13.00;99.90
22974;DHT22;11653;50.848;4.584;2024-02-14T09:36:28;13.00;99.90
22974;DHT22;11653;50.848;4.584;2024-02-14T09:38:54;13.00;99.90
22974;DHT22;11653;50.848;4.584;2024-02-14T09:41:34;13.10;99.90
22974;DHT22;11653;50.848;4.584;2024-02-14T09:44:02;13.10;99.90
22974;DHT22;11653;50.848;4.584;2024-02-14T09:46:28;13.10;99.90
22974;DHT22;11653;50.848;4.584;2024-02-14T09:48:56;13.20;99.90
22974;DHT22;11653;50.848;4.584;2024-02-14T09:51:24;13.20;99.90
22974;DHT22;11653;50.848;4.584;2024-02-14T09:53:51;13.20;99.90
22974;DHT22;11653;50.848;4.584;2024-02-14T09:56:19;13.30;99.90
22974;DHT22;11653;50.848;4.584;2024-02-14T09:58:49;13.30;99.90
22974;DHT22;11653;50.848;4.584;2024-02-14T10:01:32;13.30;99.90
22974;DHT22;11653;50.848;4.584;2024-02-14T10:03:58;13.30;99.90
22974;DHT22;11653;50.848;4.584;2024-02-14T10:06:24;13.40;99.90
22974;DHT22;11653;50.848;4.584;2024-02-14T10:08:51;13.40;99.90
22974;DHT22;11653;50.848;4.584;2024-02-14T10:11:20;13.40;99.90
22974;DHT22;11653;50.848;4.584;2024-02-14T10:13:49;13.40;99.90
22974;DHT22;11653;50.848;4.584;2024-02-14T10:16:17;13.40;99.90
22974;DHT22;11653;50.848;4.584;2024-02-14T10:18:45;13.40;99.90
22974;DHT22;11653;50.848;4.584;2024-02-14T10:21:15;13.40;99.90
22974;DHT22;11653;50.848;4.584;2024-02-14T10:23:43;13.50;99.90
22974;DHT22;11653;50.848;4.584;2024-02-14T10:26:09;13.60;99.90
22974;DHT22;11653;50.848;4.584;2024-02-14T10:28:35;13.60;99.90
22974;DHT22;11653;50.848;4.584;2024-02-14T10:31:01;13.50;99.90
22974;DHT22;11653;50.848;4.584;2024-02-14T10:33:29;13.50;99.90
22974;DHT22;11653;50.848;4.584;2024-02-14T10:35:57;13.50;99.90
22974;DHT22;11653;50.848;4.584;2024-02-14T10:38:23;13.50;99.90
22974;DHT22;11653;50.848;4.584;2024-02-14T10:40:49;13.60;99.90
22974;DHT22;11653;50.848;4.584;2024-02-14T10:43:16;13.70;99.90
22974;DHT22;11653;50.848;4.584;2024-02-14T10:45:42;13.70;99.90
22974;DHT22;11653;50.848;4.584;2024-02-14T10:48:13;13.70;99.90
22974;DHT22;11653;50.848;4.584;2024-02-14T10:50:52;13.60;99.90
22974;DHT22;11653;50.848;4.584;2024-02-14T10:54:02;13.60;99.90
22974;DHT22;11653;50.848;4.584;2024-02-14T10:56:31;13.60;99.90
22974;DHT22;11653;50.848;4.584;2024-02-14T10:58:57;13.60;99.90
22974;DHT22;11653;50.848;4.584;2024-02-14T11:01:26;13.70;99.90
22974;DHT22;11653;50.848;4.584;2024-02-14T11:03:56;13.60;99.90
22974;DHT22;11653;50.848;4.584;2024-02-14T11:06:28;13.60;99.90
22974;DHT22;11653;50.848;4.584;2024-02-14T11:08:58;13.60;99.90
22974;DHT22;11653;50.848;4.584;2024-02-14T11:11:28;13.80;99.90
22974;DHT22;11653;50.848;4.584;2024-02-14T11:13:54;13.80;99.90
22974;DHT22;11653;50.848;4.584;2024-02-14T11:16:27;13.80;99.90
22974;DHT22;11653;50.848;4.584;2024-02-14T11:19:10;13.90;99.90
22974;DHT22;11653;50.848;4.584;2024-02-14T11:21:40;13.80;99.90
22974;DHT22;11653;50.848;4.584;2024-02-14T11:24:11;13.90;99.90
22974;DHT22;11653;50.848;4.584;2024-02-14T11:26:56;13.90;99.90
22974;DHT22;11653;50.848;4.584;2024-02-14T11:29:28;14.00;99.90
22974;DHT22;11653;50.848;4.584;2024-02-14T11:32:00;14.10;99.90
22974;DHT22;11653;50.848;4.584;2024-02-14T11:34:27;14.10;99.90
22974;DHT22;11653;50.848;4.584;2024-02-14T11:36:53;14.20;99.90
22974;DHT22;11653;50.848;4.584;2024-02-14T11:39:20;14.10;99.90
22974;DHT22;11653;50.848;4.584;2024-02-14T11:42:03;14.20;99.90
22974;DHT22;11653;50.848;4.584;2024-02-14T11:58:29;13.90;99.90
22974;DHT22;11653;50.848;4.584;2024-02-14T12:00:54;13.90;99.90
22974;DHT22;11653;50.848;4.584;2024-02-14T12:03:23;13.80;99.90
22974;DHT22;11653;50.848;4.584;2024-02-14T12:05:52;13.90;99.90
22974;DHT22;11653;50.848;4.584;2024-02-14T12:08:18;13.90;99.90
22974;DHT22;11653;50.848;4.584;2024-02-14T12:10:44;13.90;99.90
22974;DHT22;11653;50.848;4.584;2024-02-14T12:13:16;13.90;99.90
22974;DHT22;11653;50.848;4.584;2024-02-14T12:15:45;14.00;99.90
22974;DHT22;11653;50.848;4.584;2024-02-14T12:18:11;14.00;99.90
22974;DHT22;11653;50.848;4.584;2024-02-14T12:20:37;14.00;99.90
22974;DHT22;11653;50.848;4.584;2024-02-14T12:23:04;14.00;99.90
22974;DHT22;11653;50.848;4.584;2024-02-14T12:25:31;14.20;99.90
22974;DHT22;11653;50.848;4.584;2024-02-14T12:27:57;14.20;99.90
22974;DHT22;11653;50.848;4.584;2024-02-14T12:33:11;14.40;99.90
22974;DHT22;11653;50.848;4.584;2024-02-14T12:35:36;14.30;99.90
22974;DHT22;11653;50.848;4.584;2024-02-14T12:38:10;14.40;99.90
22974;DHT22;11653;50.848;4.584;2024-02-14T12:40:36;14.40;99.90
22974;DHT22;11653;50.848;4.584;2024-02-14T12:43:02;14.50;99.90
22974;DHT22;11653;50.848;4.584;2024-02-14T12:45:28;14.40;99.90
22974;DHT22;11653;50.848;4.584;2024-02-14T12:47:54;14.30;99.90
22974;DHT22;11653;50.848;4.584;2024-02-14T12:50:20;14.30;99.90
22974;DHT22;11653;50.848;4.584;2024-02-14T12:52:46;14.30;99.90
22974;DHT22;11653;50.848;4.584;2024-02-14T12:55:12;14.20;99.90
22974;DHT22;11653;50.848;4.584;2024-02-14T12:57:38;14.20;99.90
22974;DHT22;11653;50.848;4.584;2024-02-14T13:00:05;14.20;99.90
22974;DHT22;11653;50.848;4.584;2024-02-14T13:02:34;14.30;99.90
22974;DHT22;11653;50.848;4.584;2024-02-14T13:05:00;14.30;99.90
22974;DHT22;11653;50.848;4.584;2024-02-14T13:07:27;14.40;99.90
22974;DHT22;11653;50.848;4.584;2024-02-14T13:09:53;14.40;99.90
22974;DHT22;11653;50.848;4.584;2024-02-14T13:12:20;14.30;99.90
22974;DHT22;11653;50.848;4.584;2024-02-14T13:14:46;14.30;99.90
22974;DHT22;11653;50.848;4.584;2024-02-14T13:17:12;14.30;99.90
22974;DHT22;11653;50.848;4.584;2024-02-14T13:19:38;14.30;99.90
22974;DHT22;11653;50.848;4.584;2024-02-14T13:22:05;14.30;99.90
22974;DHT22;11653;50.848;4.584;2024-02-14T13:24:31;14.40;99.90
22974;DHT22;11653;50.848;4.584;2024-02-14T13:26:56;14.40;99.90
22974;DHT22;11653;50.848;4.584;2024-02-14T13:29:25;14.40;99.90
22974;DHT22;11653;50.848;4.584;2024-02-14T13:31:51;14.40;99.90
22974;DHT22;11653;50.848;4.584;2024-02-14T13:34:17;14.40;99.90
22974;DHT22;11653;50.848;4.584;2024-02-14T13:36:48;14.30;99.90
22974;DHT22;11653;50.848;4.584;2024-02-14T13:39:14;14.40;99.90
22974;DHT22;11653;50.848;4.584;2024-02-14T13:41:40;14.40;99.90
22974;DHT22;11653;50.848;4.584;2024-02-14T13:44:09;14.40;99.90
22974;DHT22;11653;50.848;4.584;2024-02-14T13:46:35;14.40;99.90
22974;DHT22;11653;50.848;4.584;2024-02-14T13:49:01;14.30;99.90
22974;DHT22;11653;50.848;4.584;2024-02-14T13:51:27;14.30;99.90
22974;DHT22;11653;50.848;4.584;2024-02-14T13:53:53;14.30;99.90
22974;DHT22;11653;50.848;4.584;2024-02-14T13:56:19;14.30;99.90
22974;DHT22;11653;50.848;4.584;2024-02-14T13:58:50;14.30;99.90
22974;DHT22;11653;50.848;4.584;2024-02-14T14:01:16;14.30;99.90
22974;DHT22;11653;50.848;4.584;2024-02-14T14:03:43;14.40;99.90
22974;DHT22;11653;50.848;4.584;2024-02-14T14:06:08;14.40;99.90
22974;DHT22;11653;50.848;4.584;2024-02-14T14:08:35;14.50;99.90
22974;DHT22;11653;50.848;4.584;2024-02-14T14:11:02;14.50;99.90
22974;DHT22;11653;50.848;4.584;2024-02-14T14:13:29;14.40;99.90
22974;DHT22;11653;50.848;4.584;2024-02-14T14:15:57;14.50;99.90
22974;DHT22;11653;50.848;4.584;2024-02-14T14:18:22;14.40;99.90
22974;DHT22;11653;50.848;4.584;2024-02-14T14:20:49;14.40;99.90
22974;DHT22;11653;50.848;4.584;2024-02-14T14:23:15;14.50;99.90
22974;DHT22;11653;50.848;4.584;2024-02-14T14:25:41;14.50;99.90
22974;DHT22;11653;50.848;4.584;2024-02-14T14:28:07;14.50;99.90
22974;DHT22;11653;50.848;4.584;2024-02-14T14:30:35;14.60;99.90
22974;DHT22;11653;50.848;4.584;2024-02-14T14:33:01;14.70;99.90
22974;DHT22;11653;50.848;4.584;2024-02-14T14:35:27;14.60;99.90
22974;DHT22;11653;50.848;4.584;2024-02-14T14:37:54;14.50;99.90
22974;DHT22;11653;50.848;4.584;2024-02-14T14:40:20;14.50;99.90
22974;DHT22;11653;50.848;4.584;2024-02-14T14:42:57;14.60;99.90
22974;DHT22;11653;50.848;4.584;2024-02-14T14:45:23;14.60;99.90
22974;DHT22;11653;50.848;4.584;2024-02-14T14:47:49;14.60;99.90
22974;DHT22;11653;50.848;4.584;2024-02-14T14:50:15;14.60;99.90
22974;DHT22;11653;50.848;4.584;2024-02-14T14:52:45;14.50;99.90
22974;DHT22;11653;50.848;4.584;2024-02-14T14:55:11;14.30;99.90
22974;DHT22;11653;50.848;4.584;2024-02-14T14:57:36;14.30;99.90
22974;DHT22;11653;50.848;4.584;2024-02-14T15:00:09;14.40;99.90
22974;DHT22;11653;50.848;4.584;2024-02-14T15:02:38;14.50;99.90
22974;DHT22;11653;50.848;4.584;2024-02-14T15:05:04;14.60;99.90
22974;DHT22;11653;50.848;4.584;2024-02-14T15:07:30;14.60;99.90
22974;DHT22;11653;50.848;4.584;2024-02-14T15:09:56;14.60;99.90
22974;DHT22;11653;50.848;4.584;2024-02-14T15:12:21;14.60;99.90
22974;DHT22;11653;50.848;4.584;2024-02-14T15:14:52;14.70;99.90
22974;DHT22;11653;50.848;4.584;2024-02-14T15:17:19;14.70;99.90
22974;DHT22;11653;50.848;4.584;2024-02-14T15:19:46;14.70;99.90
22974;DHT22;11653;50.848;4.584;2024-02-14T15:22:11;14.60;99.90
22974;DHT22;11653;50.848;4.584;2024-02-14T15:24:37;14.70;99.90
22974;DHT22;11653;50.848;4.584;2024-02-14T15:27:05;14.60;99.90
22974;DHT22;11653;50.848;4.584;2024-02-14T15:29:31;14.60;99.90
22974;DHT22;11653;50.848;4.584;2024-02-14T15:32:16;14.70;99.90
22974;DHT22;11653;50.848;4.584;2024-02-14T15:35:00;14.70;99.90
22974;DHT22;11653;50.848;4.584;2024-02-14T15:37:25;14.80;99.90
22974;DHT22;11653;50.848;4.584;2024-02-14T15:39:51;14.80;99.90
22974;DHT22;11653;50.848;4.584;2024-02-14T15:42:18;14.70;99.90
22974;DHT22;11653;50.848;4.584;2024-02-14T15:44:43;14.80;99.90
22974;DHT22;11653;50.848;4.584;2024-02-14T15:47:09;14.70;99.90